Terminal Aerodrome Forecast
Issued by NWS Sioux Falls, SD

Home | Current Version | Previous Version | Text Only | Print | Product List | Glossary Off
Versions: 1 2 3 4 5 6 7 8 9 10 11 12 13 14 15 16 17 18 19 20 21 22 23 24

259
FTUS43 KFSD 112001 AAB
TAFFSD
TAF AMD
KFSD 112001Z 1120/1218 16011KT 1 1/2SM -SN OVC015
      TEMPO 1120/1121 3/4SM -SN
     FM120200 VRB03KT P6SM OVC010
     FM120600 33006KT P6SM OVC010
     FM121200 36012KT P6SM SCT060
     FM121600 36012G18KT P6SM SKC=

USA.gov is the U.S. government's official web portal to all federal, state and local government web resources and services.